Time;durP1;ratioP1;P1;durP2;ratioP2;P2;SDS_P1;SDS_P2;PMS_P1;PMS_P2;Temp;Humidity;BMP_temperature;BMP_pressure;BME280_temperature;BME280_humidity;BME280_pressure;Samples;Min_cycle;Max_cycle;Signal;HPM_P1;HPM_P2
2022/03/07 00:02:03;;;;;;;33.83;17.93;;;-0.60;99.90;;;;;;5055655;28;20204;-82
2022/03/07 00:04:29;;;;;;;34.60;17.37;;;;;;;;;;5037448;28;20178;-82
2022/03/07 00:06:55;;;;;;;37.73;17.80;;;;;;;;;;5055939;28;20221;-82
2022/03/07 00:09:22;;;;;;;37.93;18.67;;;;;;;;;;5055810;28;20687;-83
2022/03/07 00:11:48;;;;;;;36.67;17.97;;;;;;;;;;5037879;28;20210;-84
2022/03/07 00:14:14;;;;;;;36.93;18.97;;;;;;;;;;5037967;28;20176;-83
2022/03/07 00:16:40;;;;;;;33.97;18.70;;;;;;;;;;5055338;28;20277;-83
2022/03/07 00:19:06;;;;;;;33.73;18.17;;;;;;;;;;5037322;28;20182;-83
2022/03/07 00:21:32;;;;;;;34.50;18.33;;;;;;;;;;5037546;28;20302;-84
2022/03/07 00:23:58;;;;;;;38.37;18.80;;;;;;;;;;5037208;28;20527;-84
2022/03/07 00:26:25;;;;;;;45.57;21.83;;;;;;;;;;5055247;28;20181;-83
2022/03/07 00:28:51;;;;;;;33.67;16.90;;;;;;;;;;5037606;28;20219;-85
2022/03/07 00:31:20;;;;;;;37.00;20.67;;;-0.60;99.90;;;;;;5055104;28;20644;-82
2022/03/07 00:33:46;;;;;;;35.87;17.50;;;;;;;;;;5054971;28;20198;-83
2022/03/07 00:36:12;;;;;;;37.10;20.03;;;;;;;;;;5037065;28;20221;-82
2022/03/07 00:38:38;;;;;;;32.83;18.20;;;;;;;;;;5054838;28;20185;-83
2022/03/07 00:41:04;;;;;;;40.20;20.23;;;;;;;;;;5037174;28;20275;-82
2022/03/07 00:43:30;;;;;;;37.53;18.03;;;;;;;;;;5055306;28;20179;-82
2022/03/07 00:45:56;;;;;;;35.73;18.93;;;;;;;;;;5037094;28;20189;-83
2022/03/07 00:48:22;;;;;;;40.10;18.70;;;;;;;;;;5054653;28;20225;-82
2022/03/07 00:50:50;;;;;;;30.90;18.03;;;-0.50;99.90;;;;;;5036632;28;20210;-82
2022/03/07 00:53:24;;;;;;;48.10;22.23;;;-0.60;99.90;;;;;;5036319;28;20253;-83
2022/03/07 00:55:51;;;;;;;46.97;19.97;;;-0.50;99.90;;;;;;5055129;28;20226;-83
2022/03/07 00:58:17;;;;;;;34.97;17.57;;;;;;;;;;5055049;28;20214;-83
2022/03/07 01:00:43;;;;;;;22.57;9.57;;;;;;;;;;5054503;28;20230;-84
2022/03/07 01:03:11;;;;;;;34.70;17.77;;;-0.50;99.90;;;;;;5036763;28;20216;-83
2022/03/07 01:05:37;;;;;;;34.80;16.53;;;;;;;;;;5054130;28;20708;-83
2022/03/07 01:08:03;;;;;;;27.77;16.83;;;;;;;;;;5036234;28;20670;-83
2022/03/07 01:10:29;;;;;;;31.07;15.90;;;;;;;;;;5036448;28;20183;-83
2022/03/07 01:12:55;;;;;;;30.73;14.83;;;;;;;;;;5054270;28;20278;-84
2022/03/07 01:15:21;;;;;;;28.93;16.77;;;;;;;;;;5054280;28;20189;-83
2022/03/07 01:17:48;;;;;;;25.23;14.20;;;;;;;;;;5036471;28;20210;-83
2022/03/07 01:20:14;;;;;;;31.23;15.33;;;;;;;;;;5054119;28;20191;-83
2022/03/07 01:22:41;;;;;;;33.70;15.43;;;;;;;;;;5036296;28;20263;-83
2022/03/07 01:25:07;;;;;;;32.57;16.13;;;-0.50;99.90;;;;;;5053646;28;20560;-83
2022/03/07 01:27:34;;;;;;;33.80;16.80;;;;;;;;;;5036184;28;20180;-83
2022/03/07 01:30:00;;;;;;;32.47;15.27;;;;;;;;;;5036059;28;20202;-84
2022/03/07 01:32:26;;;;;;;20.60;11.50;;;;;;;;;;5036117;28;20202;-83
2022/03/07 01:34:52;;;;;;;37.80;16.07;;;-0.70;99.90;;;;;;5053943;28;20256;-83
2022/03/07 01:37:18;;;;;;;30.77;17.93;;;;;;;;;;5036041;28;20278;-84
2022/03/07 01:39:45;;;;;;;34.50;17.67;;;;;;;;;;5036458;28;20189;-83
2022/03/07 01:42:11;;;;;;;40.10;18.23;;;;;;;;;;5054105;28;20219;-84
2022/03/07 01:44:37;;;;;;;32.63;17.00;;;;;;;;;;5053822;28;20226;-84
2022/03/07 01:47:04;;;;;;;30.17;17.50;;;-0.50;99.90;;;;;;5053737;28;20180;-85
2022/03/07 01:49:30;;;;;;;29.57;16.53;;;;;;;;;;5019576;28;20190;-84
2022/03/07 01:51:57;;;;;;;32.37;15.10;;;;;;;;;;5053804;28;20222;-84
2022/03/07 01:54:23;;;;;;;32.83;17.43;;;;;;;;;;5053181;28;20753;-84
2022/03/07 01:56:51;;;;;;;34.73;18.63;;;-0.50;99.90;;;;;;5053741;28;20206;-84
2022/03/07 01:59:43;;;;;;;36.47;17.77;;;-0.80;99.90;;;;;;5053588;28;20222;-84
2022/03/07 02:02:09;;;;;;;33.50;16.83;;;;;;;;;;5050704;28;20228;-84
2022/03/07 02:04:38;;;;;;;36.50;16.30;;;-0.60;99.90;;;;;;5053475;28;20179;-84
2022/03/07 02:07:04;;;;;;;34.73;18.90;;;;;;;;;;5053347;28;20255;-85
2022/03/07 02:09:30;;;;;;;30.50;17.83;;;;;;;;;;5035545;28;20185;-84
2022/03/07 02:11:56;;;;;;;31.07;18.10;;;;;;;;;;5035891;28;20186;-84
2022/03/07 02:14:22;;;;;;;33.23;17.83;;;-0.60;99.90;;;;;;5035063;28;20612;-84
2022/03/07 02:16:49;;;;;;;37.27;18.47;;;-0.60;99.90;;;;;;5035508;28;20186;-84
2022/03/07 02:19:15;;;;;;;34.53;19.33;;;;;;;;;;5034585;28;20187;-83
2022/03/07 02:21:48;;;;;;;41.10;18.63;;;-0.40;99.90;;;;;;5053202;28;20206;-84
2022/03/07 02:24:16;;;;;;;36.37;18.73;;;-0.60;99.90;;;;;;5035435;28;20535;-83
2022/03/07 02:26:43;;;;;;;38.57;20.07;;;;;;;;;;5035424;28;20242;-83
2022/03/07 02:29:10;;;;;;;29.80;16.57;;;;;;;;;;5035191;28;20187;-84
2022/03/07 02:31:36;;;;;;;34.77;19.63;;;;;;;;;;5053238;28;20186;-83
2022/03/07 02:34:03;;;;;;;39.50;17.77;;;-0.60;99.90;;;;;;5035429;28;20180;-84
2022/03/07 02:36:29;;;;;;;32.60;18.00;;;;;;;;;;5053100;28;20262;-83
2022/03/07 02:38:55;;;;;;;36.13;20.47;;;;;;;;;;5035282;28;20179;-84
2022/03/07 02:41:22;;;;;;;35.50;21.57;;;;;;;;;;5052710;28;20187;-83
2022/03/07 02:43:48;;;;;;;34.47;18.13;;;;;;;;;;5052940;28;20245;-83
2022/03/07 02:46:14;;;;;;;35.20;18.47;;;;;;;;;;5035075;28;20183;-83
2022/03/07 02:48:40;;;;;;;36.87;19.30;;;;;;;;;;5053341;28;20187;-83
2022/03/07 02:51:06;;;;;;;25.47;12.37;;;;;;;;;;5052734;28;20175;-83
2022/03/07 02:53:32;;;;;;;35.27;20.47;;;;;;;;;;5035231;28;20239;-83
2022/03/07 02:55:58;;;;;;;29.63;15.27;;;;;;;;;;5053605;28;20169;-83
2022/03/07 02:58:24;;;;;;;42.40;21.03;;;;;;;;;;5035287;28;20246;-83
2022/03/07 03:00:51;;;;;;;41.13;18.90;;;;;;;;;;5053062;28;20181;-84
2022/03/07 03:03:17;;;;;;;43.40;23.47;;;;;;;;;;5053087;28;20219;-84
2022/03/07 03:09:05;;;;;;;36.20;20.43;;;;;;;;;;5052960;28;20165;-83
2022/03/07 03:11:32;;;;;;;37.33;20.00;;;;;;;;;;5053289;28;20178;-84
2022/03/07 03:13:58;;;;;;;34.50;19.13;;;;;;;;;;5035861;28;20180;-84
2022/03/07 03:16:23;;;;;;;38.60;21.53;;;-0.60;99.90;;;;;;5036059;28;20191;-84
2022/03/07 03:18:49;;;;;;;27.17;14.67;;;;;;;;;;5053097;28;20202;-84
2022/03/07 03:21:17;;;;;;;38.10;22.87;;;;;;;;;;5052514;28;20220;-83
2022/03/07 03:23:43;;;;;;;34.27;18.10;;;;;;;;;;5035340;28;20188;-83
2022/03/07 03:26:09;;;;;;;36.17;21.53;;;-0.60;99.90;;;;;;5035088;28;20645;-84
2022/03/07 03:28:35;;;;;;;34.90;20.27;;;;;;;;;;5035249;28;20189;-84
2022/03/07 03:31:01;;;;;;;37.63;18.03;;;;;;;;;;5055486;28;20181;-84
2022/03/07 03:33:27;;;;;;;36.33;18.47;;;;;;;;;;5022205;28;20597;-84
2022/03/07 03:35:52;;;;;;;39.93;19.87;;;-0.70;99.90;;;;;;5056374;28;20182;-84
2022/03/07 03:38:18;;;;;;;34.57;19.00;;;;;;;;;;5038640;28;20180;-84
2022/03/07 03:40:45;;;;;;;34.17;18.63;;;;;;;;;;5056626;28;20589;-84
2022/03/07 03:43:11;;;;;;;42.73;18.87;;;;;;;;;;5038148;28;20585;-83
2022/03/07 03:45:36;;;;;;;37.27;18.37;;;;;;;;;;5056048;28;20307;-83
2022/03/07 03:48:03;;;;;;;36.90;18.73;;;;;;;;;;5056287;28;20190;-83
2022/03/07 03:50:29;;;;;;;33.73;18.53;;;;;;;;;;5055968;28;20184;-83
2022/03/07 03:52:55;;;;;;;38.27;19.60;;;;;;;;;;5056158;28;20209;-83
2022/03/07 03:55:21;;;;;;;30.57;13.77;;;;;;;;;;5037548;28;20235;-84
2022/03/07 03:57:47;;;;;;;36.47;18.20;;;;;;;;;;5037975;28;20192;-83
2022/03/07 04:00:15;;;;;;;35.90;18.07;;;-0.80;99.90;;;;;;5055526;28;20265;-83
2022/03/07 04:02:44;;;;;;;41.87;21.10;;;-0.90;99.90;;;;;;5037894;28;20209;-83
2022/03/07 04:05:11;;;;;;;32.93;17.57;;;-0.90;99.90;;;;;;5037771;28;20619;-83
2022/03/07 04:07:38;;;;;;;35.87;18.37;;;-0.90;99.90;;;;;;5055685;28;20188;-83
2022/03/07 04:10:04;;;;;;;44.23;22.63;;;-0.70;99.90;;;;;;5021567;28;20192;-83
2022/03/07 04:12:30;;;;;;;37.07;19.63;;;;;;;;;;5037700;28;20187;-83
2022/03/07 04:14:56;;;;;;;41.50;19.27;;;;;;;;;;5037877;28;20258;-82
2022/03/07 04:17:22;;;;;;;47.80;22.30;;;-1.00;99.90;;;;;;5055303;28;20175;-83
2022/03/07 04:19:48;;;;;;;44.47;22.30;;;;;;;;;;5037643;28;20226;-82
2022/03/07 04:22:15;;;;;;;42.73;23.83;;;;;;;;;;5055230;28;20211;-82
2022/03/07 04:24:41;;;;;;;46.10;22.40;;;;;;;;;;5020925;28;20215;-82
2022/03/07 04:27:07;;;;;;;41.67;20.63;;;;;;;;;;5037282;28;20234;-82
2022/03/07 04:29:33;;;;;;;41.37;19.73;;;;;;;;;;5054990;28;20264;-82
2022/03/07 04:31:59;;;;;;;42.37;22.67;;;;;;;;;;5055200;28;20180;-82
2022/03/07 04:34:25;;;;;;;38.77;20.97;;;;;;;;;;5054878;28;20618;-83
2022/03/07 04:36:51;;;;;;;41.33;20.63;;;;;;;;;;5037077;28;20271;-83
2022/03/07 04:39:17;;;;;;;39.13;16.80;;;;;;;;;;5020670;28;20200;-83
2022/03/07 04:41:44;;;;;;;40.23;18.53;;;;;;;;;;5035565;28;20309;-82
2022/03/07 04:44:10;;;;;;;39.47;21.17;;;;;;;;;;5036537;28;20220;-83
2022/03/07 04:46:37;;;;;;;38.00;19.97;;;;;;;;;;5036416;28;20221;-82
2022/03/07 04:49:03;;;;;;;38.63;17.67;;;;;;;;;;5036633;28;20183;-82
2022/03/07 04:51:29;;;;;;;40.43;20.53;;;;;;;;;;5036488;28;20197;-83
2022/03/07 04:53:55;;;;;;;42.17;21.77;;;;;;;;;;5036580;28;20224;-83
2022/03/07 04:56:21;;;;;;;38.27;19.93;;;;;;;;;;5054300;28;20663;-80
2022/03/07 04:58:47;;;;;;;39.63;20.63;;;;;;;;;;5054319;28;20192;-81
2022/03/07 05:01:16;;;;;;;43.00;21.57;;;;;;;;;;5054672;28;20265;-84
2022/03/07 05:03:42;;;;;;;40.93;17.53;;;;;;;;;;5054222;28;20183;-81
2022/03/07 05:06:09;;;;;;;40.30;19.10;;;;;;;;;;5054265;28;20177;-81
2022/03/07 05:08:37;;;;;;;42.27;21.57;;;;;;;;;;5036214;28;20193;-81
2022/03/07 05:11:03;;;;;;;46.83;22.83;;;;;;;;;;5036391;28;20180;-81
2022/03/07 05:13:29;;;;;;;47.73;25.03;;;;;;;;;;5036113;28;20636;-82
2022/03/07 05:15:55;;;;;;;40.13;21.03;;;-1.30;99.90;;;;;;5020206;28;20184;-82
2022/03/07 05:18:21;;;;;;;39.27;20.20;;;;;;;;;;5036430;28;20186;-81
2022/03/07 05:20:47;;;;;;;43.83;20.07;;;;;;;;;;5036026;28;20673;-81
2022/03/07 05:23:13;;;;;;;46.20;22.77;;;;;;;;;;5054231;28;20308;-81
2022/03/07 05:25:39;;;;;;;39.97;21.10;;;-1.10;99.90;;;;;;5035968;28;20180;-82
2022/03/07 05:28:04;;;;;;;42.53;22.67;;;-1.10;99.90;;;;;;5035972;28;20659;-82
2022/03/07 05:30:30;;;;;;;39.20;22.00;;;-1.10;99.90;;;;;;5036155;28;20183;-83
2022/03/07 05:32:56;;;;;;;46.07;21.17;;;;;;;;;;5019767;28;20644;-82
2022/03/07 05:35:23;;;;;;;41.70;19.43;;;;;;;;;;5035965;28;20292;-82
2022/03/07 05:37:49;;;;;;;37.07;17.70;;;;;;;;;;5053204;28;20550;-82
2022/03/07 05:40:16;;;;;;;40.50;19.60;;;-1.00;99.90;;;;;;5035835;28;20182;-82
2022/03/07 05:42:42;;;;;;;47.50;20.00;;;;;;;;;;5019365;28;20240;-82
2022/03/07 05:45:10;;;;;;;30.53;13.03;;;-0.90;99.90;;;;;;5035899;28;20176;-83
2022/03/07 05:47:36;;;;;;;37.53;20.17;;;;;;;;;;5035840;28;20275;-83
2022/03/07 05:50:03;;;;;;;33.50;17.40;;;;;;;;;;5035952;28;20180;-84
2022/03/07 05:52:29;;;;;;;43.77;18.93;;;;;;;;;;5035575;28;20205;-83
2022/03/07 05:54:55;;;;;;;35.30;18.97;;;;;;;;;;5053182;28;20216;-83
2022/03/07 05:57:21;;;;;;;39.63;18.53;;;;;;;;;;5048365;28;20209;-81
2022/03/07 05:59:47;;;;;;;36.43;16.53;;;;;;;;;;5049881;28;20191;-82
2022/03/07 06:02:13;;;;;;;42.27;19.10;;;;;;;;;;5066655;28;20207;-82
2022/03/07 06:04:39;;;;;;;35.30;18.17;;;;;;;;;;5066963;28;20265;-82
2022/03/07 06:07:05;;;;;;;38.87;17.33;;;;;;;;;;5062123;28;20271;-82
2022/03/07 06:09:31;;;;;;;39.73;18.57;;;;;;;;;;5053044;28;20218;-83
2022/03/07 06:11:57;;;;;;;31.67;16.30;;;;;;;;;;5034919;28;20252;-82
2022/03/07 06:14:23;;;;;;;42.57;19.47;;;;;;;;;;5035048;28;20548;-83
2022/03/07 06:16:50;;;;;;;33.03;17.03;;;-0.70;99.90;;;;;;5053650;28;20182;-81
2022/03/07 06:19:16;;;;;;;36.40;18.03;;;;;;;;;;5052772;28;20190;-82
2022/03/07 06:21:42;;;;;;;31.17;16.27;;;;;;;;;;5030832;28;20278;-82
2022/03/07 06:24:08;;;;;;;34.43;18.53;;;;;;;;;;5024403;28;20196;-80
2022/03/07 06:26:35;;;;;;;36.57;17.47;;;;;;;;;;5047984;28;20185;-85
2022/03/07 06:29:02;;;;;;;34.00;15.67;;;-0.60;99.90;;;;;;5033127;28;20188;-83
2022/03/07 06:31:28;;;;;;;33.77;17.67;;;;;;;;;;5033342;28;20592;-82
2022/03/07 06:33:54;;;;;;;37.53;17.37;;;;;;;;;;5033469;28;20277;-82
2022/03/07 06:36:20;;;;;;;32.90;17.17;;;;;;;;;;5032559;28;20675;-84
2022/03/07 06:38:46;;;;;;;35.27;16.80;;;;;;;;;;5045866;28;20210;-82
2022/03/07 06:41:12;;;;;;;38.90;16.87;;;;;;;;;;5040700;28;20198;-84
2022/03/07 06:43:39;;;;;;;31.60;17.00;;;;;;;;;;5028714;28;20211;-84
2022/03/07 06:46:05;;;;;;;31.27;16.23;;;;;;;;;;5030161;28;20668;-82
2022/03/07 06:48:33;;;;;;;36.97;17.17;;;;;;;;;;5021806;28;20197;-84
2022/03/07 06:50:59;;;;;;;37.37;18.20;;;;;;;;;;5028094;28;20706;-83
2022/03/07 06:53:26;;;;;;;37.30;18.47;;;-0.50;99.90;;;;;;5031964;28;20230;-82
2022/03/07 06:55:52;;;;;;;33.57;18.13;;;;;;;;;;5038769;28;20208;-84
2022/03/07 06:58:20;;;;;;;34.87;18.10;;;;;;;;;;5054015;28;20188;-82
2022/03/07 07:00:46;;;;;;;36.50;18.63;;;;;;;;;;5042170;28;20191;-84
2022/03/07 07:03:12;;;;;;;32.93;18.03;;;;;;;;;;5040304;28;20211;-82
2022/03/07 07:05:38;;;;;;;35.53;15.60;;;;;;;;;;5043514;28;20592;-86
2022/03/07 07:08:04;;;;;;;33.53;17.93;;;-0.10;99.90;;;;;;5056625;28;20188;-82
2022/03/07 07:10:30;;;;;;;29.37;15.40;;;;;;;;;;5039011;28;20244;-81
2022/03/07 07:12:56;;;;;;;33.43;17.57;;;;;;;;;;5041111;28;20311;-82
2022/03/07 07:15:22;;;;;;;24.27;12.40;;;;;;;;;;5055499;28;20191;-83
2022/03/07 07:17:48;;;;;;;29.30;14.97;;;;;;;;;;5037638;28;20190;-84
2022/03/07 07:20:14;;;;;;;32.03;17.30;;;;;;;;;;5055551;28;20195;-83
2022/03/07 07:22:40;;;;;;;28.57;15.33;;;;;;;;;;5054712;28;20214;-85
2022/03/07 07:25:08;;;;;;;29.90;15.00;;;0.00;99.90;;;;;;5055431;28;20193;-81
2022/03/07 07:27:34;;;;;;;28.23;16.23;;;;;;;;;;5037539;28;20200;-83
2022/03/07 07:30:00;;;;;;;26.33;13.30;;;;;;;;;;5037407;28;20199;-83
2022/03/07 07:32:26;;;;;;;25.03;14.33;;;;;;;;;;5046027;28;20263;-81
2022/03/07 07:34:52;;;;;;;30.37;14.63;;;;;;;;;;5032590;28;20180;-81
2022/03/07 07:37:18;;;;;;;25.53;11.93;;;;;;;;;;5030869;28;20661;-80
2022/03/07 07:39:44;;;;;;;27.37;12.43;;;;;;;;;;5030946;28;20203;-82
2022/03/07 07:42:10;;;;;;;26.70;14.60;;;;;;;;;;5057454;28;20214;-83
2022/03/07 07:44:36;;;;;;;29.87;15.20;;;;;;;;;;5034505;28;20184;-81
2022/03/07 07:47:03;;;;;;;21.03;10.90;;;0.20;99.90;;;;;;5033147;28;20233;-83
2022/03/07 07:49:31;;;;;;;18.90;9.10;;;;;;;;;;5035922;28;20186;-83
2022/03/07 07:51:57;;;;;;;15.53;8.70;;;;;;;;;;5021229;28;20203;-82
2022/03/07 07:54:23;;;;;;;19.23;10.03;;;;;;;;;;5037315;28;20246;-86
2022/03/07 07:56:50;;;;;;;22.77;12.83;;;;;;;;;;5045076;28;20193;-82
2022/03/07 07:59:18;;;;;;;22.33;11.50;;;;;;;;;;5029612;28;20187;-83
2022/03/07 08:01:44;;;;;;;21.50;11.63;;;;;;;;;;5040717;28;20224;-86
2022/03/07 08:04:12;;;;;;;21.53;9.90;;;;;;;;;;5023634;28;20708;-83
2022/03/07 08:06:38;;;;;;;19.43;10.30;;;;;;;;;;5025274;28;20189;-84
2022/03/07 08:09:04;;;;;;;24.23;12.03;;;;;;;;;;5027920;28;20566;-83
2022/03/07 08:11:30;;;;;;;23.67;13.57;;;;;;;;;;5029050;28;20188;-83
2022/03/07 08:13:56;;;;;;;22.47;10.80;;;;;;;;;;5026139;28;20270;-82
2022/03/07 08:16:22;;;;;;;20.50;11.10;;;;;;;;;;5044256;28;20288;-86
2022/03/07 08:18:48;;;;;;;22.73;13.47;;;;;;;;;;5053216;28;20282;-85
2022/03/07 08:21:14;;;;;;;26.93;14.47;;;;;;;;;;5045290;28;20191;-86
2022/03/07 08:23:40;;;;;;;25.57;15.10;;;;;;;;;;5027850;28;20786;-86
2022/03/07 08:26:06;;;;;;;25.50;11.97;;;;;;;;;;5043554;28;20268;-85
2022/03/07 08:28:32;;;;;;;26.77;14.73;;;;;;;;;;5045563;28;20191;-83
2022/03/07 08:30:58;;;;;;;26.27;13.60;;;;;;;;;;5043399;28;20193;-85
2022/03/07 08:33:24;;;;;;;29.57;14.20;;;;;;;;;;5047182;28;20196;-84
2022/03/07 08:35:52;;;;;;;33.90;14.77;;;;;;;;;;5043488;28;20201;-84
2022/03/07 08:38:19;;;;;;;29.13;13.70;;;;;;;;;;5056926;28;20179;-83
2022/03/07 08:40:45;;;;;;;29.90;16.67;;;;;;;;;;5041649;28;20183;-85
2022/03/07 08:43:11;;;;;;;32.90;16.20;;;;;;;;;;5057832;28;20219;-82
2022/03/07 08:45:37;;;;;;;33.20;14.23;;;;;;;;;;5039729;28;20190;-83
2022/03/07 08:48:03;;;;;;;29.30;15.53;;;;;;;;;;5020227;28;20566;-86
2022/03/07 08:50:29;;;;;;;27.70;14.77;;;;;;;;;;5020441;28;20218;-83
2022/03/07 08:52:55;;;;;;;31.13;14.00;;;;;;;;;;5037702;28;20208;-83
2022/03/07 08:55:21;;;;;;;28.10;14.97;;;;;;;;;;5036626;28;20632;-84
2022/03/07 08:57:47;;;;;;;30.90;18.37;;;;;;;;;;5021122;28;20204;-84
2022/03/07 09:00:14;;;;;;;27.27;13.33;;;0.70;99.90;;;;;;5036517;28;20609;-84
2022/03/07 09:02:40;;;;;;;30.80;15.07;;;;;;;;;;5036149;28;20697;-85
2022/03/07 09:05:06;;;;;;;27.77;15.53;;;0.40;99.90;;;;;;5036262;28;20183;-83
2022/03/07 09:07:32;;;;;;;29.20;14.03;;;;;;;;;;5020002;28;20182;-82
2022/03/07 09:09:59;;;;;;;29.47;16.30;;;;;;;;;;5011852;28;20275;-83
2022/03/07 09:12:27;;;;;;;24.93;13.60;;;;;;;;;;5028306;28;20190;-85
2022/03/07 09:14:53;;;;;;;18.43;10.37;;;;;;;;;;5054677;28;20172;-84
2022/03/07 09:17:19;;;;;;;23.27;11.87;;;;;;;;;;5024726;28;20191;-82
2022/03/07 09:19:45;;;;;;;26.90;11.57;;;;;;;;;;5000524;28;20583;-83
2022/03/07 09:22:11;;;;;;;18.27;10.53;;;;;;;;;;5016525;28;20330;-83
2022/03/07 09:24:37;;;;;;;15.43;8.97;;;;;;;;;;5000390;28;20188;-84
2022/03/07 09:30:25;;;;;;;18.27;11.33;;;;;;;;;;5272815;22;20250;-83
2022/03/07 09:32:52;;;;;;;13.93;9.00;;;;;;;;;;5055737;28;20195;-83
2022/03/07 09:35:18;;;;;;;22.53;12.63;;;;;;;;;;5073864;28;20230;-84
2022/03/07 09:37:44;;;;;;;16.70;10.97;;;;;;;;;;5055827;28;20179;-84
2022/03/07 09:40:10;;;;;;;14.33;9.33;;;;;;;;;;5039097;28;20222;-84
2022/03/07 09:42:36;;;;;;;19.53;9.77;;;;;;;;;;5055741;28;20305;-86
2022/03/07 09:45:03;;;;;;;16.47;8.23;;;;;;;;;;5073291;28;20666;-87
2022/03/07 09:47:30;;;;;;;17.97;9.20;;;1.40;99.90;;;;;;5055643;28;20274;-87
2022/03/07 09:49:57;;;;;;;12.20;7.47;;;;;;;;;;5056485;28;20175;-86
2022/03/07 09:52:23;;;;;;;18.03;9.90;;;;;;;;;;5039484;28;20239;-85
2022/03/07 09:54:49;;;;;;;14.17;7.57;;;;;;;;;;5055762;28;20183;-85
2022/03/07 09:57:15;;;;;;;14.83;8.43;;;;;;;;;;5049911;28;20180;-86
2022/03/07 09:59:41;;;;;;;12.73;6.93;;;;;;;;;;5054878;28;20211;-87
2022/03/07 10:02:14;;;;;;;14.50;7.77;;;2.00;99.90;;;;;;5055481;28;20332;-87
2022/03/07 10:04:43;;;;;;;14.30;7.33;;;2.20;99.90;;;;;;5056375;28;20281;-86
2022/03/07 10:07:09;;;;;;;11.63;5.33;;;;;;;;;;5076222;28;20498;-85
2022/03/07 10:09:35;;;;;;;12.57;6.33;;;;;;;;;;5073697;28;20208;-86
2022/03/07 10:12:02;;;;;;;11.10;6.57;;;;;;;;;;5038219;28;20645;-86
2022/03/07 10:14:47;;;;;;;12.73;7.37;;;2.20;99.90;;;;;;5054491;28;20537;-85
2022/03/07 10:17:29;;;;;;;8.20;6.03;;;1.70;99.90;;;;;;5072891;28;20185;-84
2022/03/07 10:19:55;;;;;;;10.47;6.17;;;;;;;;;;5040200;28;20175;-84
2022/03/07 10:22:24;;;;;;;9.87;5.90;;;1.70;99.90;;;;;;5077915;28;20290;-85
2022/03/07 10:25:06;;;;;;;12.57;7.03;;;1.70;99.90;;;;;;5055908;28;20181;-86
2022/03/07 10:27:34;;;;;;;10.53;6.87;;;1.60;99.90;;;;;;5066894;28;20259;-85
2022/03/07 10:30:00;;;;;;;10.80;5.50;;;;;;;;;;5077446;28;20192;-85
2022/03/07 10:32:26;;;;;;;10.70;6.27;;;;;;;;;;5057209;28;20179;-84
2022/03/07 10:34:53;;;;;;;12.53;6.97;;;;;;;;;;5055466;28;20661;-85
2022/03/07 10:37:19;;;;;;;9.30;5.00;;;;;;;;;;5074309;28;20179;-84
2022/03/07 10:39:52;;;;;;;8.53;5.00;;;2.00;99.90;;;;;;5082429;28;20202;-85
2022/03/07 10:42:19;;;;;;;8.60;4.83;;;2.10;99.90;;;;;;5083031;28;20213;-86
2022/03/07 10:44:45;;;;;;;9.53;5.57;;;;;;;;;;5070722;28;20179;-85
2022/03/07 10:47:16;;;;;;;8.87;5.63;;;2.00;99.90;;;;;;5056137;28;20196;-87
2022/03/07 10:49:59;;;;;;;9.07;5.17;;;2.00;99.90;;;;;;5092082;28;20170;-87
2022/03/07 10:52:34;;;;;;;8.23;4.90;;;2.00;99.90;;;;;;5091006;28;20194;-87
2022/03/07 10:55:00;;;;;;;9.40;4.80;;;;;;;;;;5071694;28;20174;-85
2022/03/07 10:57:26;;;;;;;7.13;5.53;;;;;;;;;;5077671;28;20179;-87
2022/03/07 10:59:52;;;;;;;7.80;5.43;;;;;;;;;;5059206;28;20635;-86
2022/03/07 11:02:19;;;;;;;11.17;6.50;;;;;;;;;;5076267;28;20670;-86
2022/03/07 11:04:48;;;;;;;9.50;6.40;;;2.10;99.90;;;;;;5060861;28;20180;-87
2022/03/07 11:07:15;;;;;;;11.17;6.13;;;;;;;;;;5070070;28;20182;-86
2022/03/07 11:09:41;;;;;;;16.77;6.10;;;2.10;99.90;;;;;;5078047;28;20175;-86
2022/03/07 11:12:12;;;;;;;15.63;6.00;;;1.80;99.90;;;;;;5046069;28;20242;-85
2022/03/07 11:14:50;;;;;;;11.93;6.43;;;;;;;;;;5069383;28;20253;-84
2022/03/07 11:17:34;;;;;;;9.27;5.30;;;;;;;;;;5064184;28;20209;-83
2022/03/07 11:20:01;;;;;;;11.50;6.50;;;;;;;;;;5050629;28;20194;-84
2022/03/07 11:22:28;;;;;;;10.30;6.43;;;;;;;;;;5082783;28;20217;-89
2022/03/07 11:24:54;;;;;;;9.10;5.63;;;;;;;;;;5078683;28;20199;-87
2022/03/07 11:27:20;;;;;;;13.03;7.20;;;;;;;;;;5078365;28;20325;-87
2022/03/07 11:29:46;;;;;;;11.67;6.47;;;;;;;;;;5016817;28;1227621;-86
2022/03/07 11:32:18;;;;;;;8.50;5.17;;;2.40;99.90;;;;;;5047343;28;20195;-86
2022/03/07 11:34:56;;;;;;;11.90;5.43;;;2.80;99.90;;;;;;5060037;28;20179;-88
2022/03/07 11:37:27;;;;;;;9.97;5.57;;;2.50;99.90;;;;;;5059467;28;20232;-86
2022/03/07 11:39:56;;;;;;;9.80;5.67;;;;;;;;;;5059162;28;20221;-88
2022/03/07 11:42:22;;;;;;;13.80;6.13;;;;;;;;;;5042678;28;20212;-86
2022/03/07 11:44:49;;;;;;;7.87;5.23;;;;;;;;;;5046049;28;20176;-87
2022/03/07 11:47:20;;;;;;;14.17;7.30;;;2.70;99.90;;;;;;5048625;28;20700;-84
2022/03/07 11:49:57;;;;;;;12.70;6.67;;;2.20;99.90;;;;;;5047309;28;20184;-87
2022/03/07 11:52:23;;;;;;;11.10;5.90;;;2.60;99.90;;;;;;5064721;28;20216;-86
2022/03/07 11:54:51;;;;;;;8.60;4.50;;;2.40;99.90;;;;;;5057803;28;20168;-88
2022/03/07 11:57:18;;;;;;;7.60;5.00;;;;;;;;;;5058062;28;20210;-86
2022/03/07 11:59:44;;;;;;;9.20;4.80;;;2.40;99.90;;;;;;5059005;28;20251;-87
2022/03/07 12:02:10;;;;;;;8.70;5.07;;;;;;;;;;5053956;28;20210;-84
2022/03/07 12:04:45;;;;;;;8.27;4.70;;;2.30;99.90;;;;;;5049430;28;20702;-86
2022/03/07 12:07:12;;;;;;;11.13;5.17;;;;;;;;;;5068640;28;20189;-88
2022/03/07 12:09:39;;;;;;;7.07;5.23;;;2.50;99.90;;;;;;5062932;28;20183;-84
2022/03/07 12:12:05;;;;;;;8.73;4.60;;;;;;;;;;5058421;28;20222;-86
2022/03/07 12:14:40;;;;;;;9.03;5.20;;;2.30;99.90;;;;;;5076472;28;20187;-86
2022/03/07 12:17:22;;;;;;;14.30;7.53;;;2.40;99.90;;;;;;5078487;28;20262;-86
2022/03/07 12:19:58;;;;;;;10.17;5.40;;;2.50;99.90;;;;;;5076184;28;20159;-86
2022/03/07 12:22:26;;;;;;;12.77;5.80;;;2.20;99.90;;;;;;5075405;28;20202;-86
2022/03/07 12:24:55;;;;;;;13.77;6.13;;;;;;;;;;5057753;28;20208;-86
2022/03/07 12:27:23;;;;;;;7.40;4.77;;;2.20;99.90;;;;;;5074755;28;20547;-86
2022/03/07 12:29:51;;;;;;;8.40;5.60;;;2.20;99.90;;;;;;5074692;28;20175;-86
2022/03/07 12:32:18;;;;;;;9.63;5.73;;;;;;;;;;5031081;28;20180;-85
2022/03/07 12:34:44;;;;;;;8.13;5.60;;;2.10;99.90;;;;;;5056288;28;20257;-88
2022/03/07 12:37:20;;;;;;;17.87;7.80;;;2.30;99.90;;;;;;5057219;28;20207;-87
2022/03/07 12:39:49;;;;;;;14.43;7.10;;;2.40;99.90;;;;;;5058465;28;20174;-88
2022/03/07 12:42:17;;;;;;;13.80;7.60;;;2.40;99.90;;;;;;5075065;28;20223;-87
2022/03/07 12:44:43;;;;;;;14.53;7.77;;;;;;;;;;5075873;28;20171;-88
2022/03/07 12:47:10;;;;;;;10.87;5.70;;;2.30;99.90;;;;;;5057279;28;20201;-86
2022/03/07 12:49:37;;;;;;;10.33;5.93;;;;;;;;;;5038356;28;20631;-88
2022/03/07 12:52:06;;;;;;;11.80;5.63;;;2.20;99.90;;;;;;5076070;28;20185;-88
2022/03/07 12:54:34;;;;;;;11.10;6.00;;;2.40;99.90;;;;;;5058265;28;20198;-87
2022/03/07 12:57:01;;;;;;;9.10;5.53;;;2.40;99.90;;;;;;5056696;28;20210;-85
2022/03/07 12:59:29;;;;;;;9.80;6.10;;;2.40;99.90;;;;;;5074394;28;20229;-84
2022/03/07 13:01:56;;;;;;;14.30;6.57;;;;;;;;;;5055970;28;20219;-83
2022/03/07 13:04:26;;;;;;;9.37;5.60;;;2.40;99.90;;;;;;5073406;28;20174;-84
2022/03/07 13:06:55;;;;;;;8.37;4.97;;;2.40;99.90;;;;;;5057265;28;20262;-85
2022/03/07 13:09:30;;;;;;;7.87;4.77;;;2.50;99.90;;;;;;5056023;28;20180;-85
2022/03/07 13:11:56;;;;;;;9.13;5.40;;;;;;;;;;5056625;28;20186;-84
2022/03/07 13:14:28;;;;;;;8.10;5.07;;;2.70;99.90;;;;;;5074058;28;20178;-87
2022/03/07 13:17:02;;;;;;;6.73;4.20;;;2.80;99.90;;;;;;5074145;28;20159;-85
2022/03/07 13:19:28;;;;;;;8.37;4.60;;;;;;;;;;5056871;28;20183;-85
2022/03/07 13:21:54;;;;;;;15.13;4.77;;;;;;;;;;5056423;28;20213;-83
2022/03/07 13:24:23;;;;;;;9.27;5.00;;;2.90;99.90;;;;;;5073822;28;20183;-84
2022/03/07 13:27:14;;;;;;;8.23;4.83;;;3.50;99.90;;;;;;5073869;28;20175;-85
2022/03/07 13:29:42;;;;;;;18.80;8.93;;;2.80;99.90;;;;;;5073471;28;20179;-86
2022/03/07 13:32:16;;;;;;;9.00;4.63;;;2.90;99.90;;;;;;5055761;28;20190;-85
2022/03/07 13:34:46;;;;;;;9.77;5.37;;;2.80;99.90;;;;;;5056286;28;20182;-83
2022/03/07 13:37:39;;;;;;;7.83;5.37;;;2.90;99.90;;;;;;5073828;28;20236;-83
2022/03/07 13:40:09;;;;;;;8.90;5.60;;;3.00;99.90;;;;;;5060416;28;20221;-86
2022/03/07 13:42:41;;;;;;;7.70;4.10;;;3.00;99.90;;;;;;5055962;28;20214;-85
2022/03/07 13:45:12;;;;;;;9.27;4.30;;;3.30;99.90;;;;;;5055459;28;20171;-85
2022/03/07 13:47:39;;;;;;;7.77;3.80;;;;;;;;;;5055700;28;20555;-85
2022/03/07 13:50:05;;;;;;;5.73;3.27;;;;;;;;;;5056119;28;20183;-87
2022/03/07 13:52:42;;;;;;;11.40;5.60;;;3.10;99.90;;;;;;5073424;28;20190;-86
2022/03/07 13:55:16;;;;;;;13.10;5.37;;;3.20;99.90;;;;;;5073681;28;20600;-86
2022/03/07 13:58:05;;;;;;;7.53;4.17;;;3.20;99.90;;;;;;5039162;28;20180;-86